Time;durP1;ratioP1;P1;durP2;ratioP2;P2;SDS_P1;SDS_P2;PMS_P1;PMS_P2;Temp;Humidity;BMP_temperature;BMP_pressure;BME280_temperature;BME280_humidity;BME280_pressure;Samples;Min_cycle;Max_cycle;Signal;HPM_P1;HPM_P2
2023/03/12 00:00:52;;;;;;;7.82;4.50;;;6.40;99.90;;;;;;5015805;28;20647;-72
2023/03/12 00:03:18;;;;;;;8.50;5.07;;;6.40;99.90;;;;;;5029816;28;20209;-72
2023/03/12 00:05:44;;;;;;;6.03;4.47;;;6.30;99.90;;;;;;5015077;28;20430;-71
2023/03/12 00:08:11;;;;;;;6.70;4.60;;;6.30;99.90;;;;;;5015758;28;20594;-71
2023/03/12 00:10:39;;;;;;;6.40;4.50;;;6.30;99.90;;;;;;5023806;28;20464;-71
2023/03/12 00:13:07;;;;;;;6.07;3.93;;;6.30;99.90;;;;;;5031857;28;20492;-71
2023/03/12 00:15:40;;;;;;;6.30;4.50;;;6.30;99.90;;;;;;5015793;28;20499;-71
2023/03/12 00:18:06;;;;;;;6.82;4.25;;;6.30;99.90;;;;;;4998802;28;20240;-71
2023/03/12 00:20:32;;;;;;;8.33;4.67;;;6.30;99.90;;;;;;5032833;28;20276;-71
2023/03/12 00:22:58;;;;;;;5.93;4.07;;;6.30;99.90;;;;;;4998721;28;20459;-71
2023/03/12 00:25:26;;;;;;;4.97;3.92;;;6.30;99.90;;;;;;5015772;28;20174;-71
2023/03/12 00:27:52;;;;;;;5.85;4.10;;;6.30;99.90;;;;;;5026747;28;20205;-71
2023/03/12 00:30:26;;;;;;;6.83;4.27;;;6.30;99.90;;;;;;5003247;28;20170;-71
2023/03/12 00:32:53;;;;;;;7.80;4.40;;;6.30;99.90;;;;;;5015110;28;20838;-71
2023/03/12 00:35:19;;;;;;;5.70;4.00;;;6.30;99.90;;;;;;4999801;28;20221;-71
2023/03/12 00:37:45;;;;;;;5.00;3.60;;;6.30;99.90;;;;;;5012311;28;20446;-71
2023/03/12 00:40:14;;;;;;;8.93;4.60;;;6.30;99.90;;;;;;5028792;28;20410;-71
2023/03/12 00:42:39;;;;;;;6.17;3.70;;;6.20;99.90;;;;;;4982736;28;20243;-71
2023/03/12 00:45:10;;;;;;;4.93;4.07;;;6.20;99.90;;;;;;5031839;28;20416;-71
2023/03/12 00:47:36;;;;;;;5.60;4.13;;;6.30;99.90;;;;;;5045969;28;20675;-71
2023/03/12 00:50:03;;;;;;;5.60;3.90;;;6.20;99.90;;;;;;5014921;28;20445;-71
2023/03/12 00:52:29;;;;;;;5.90;3.53;;;6.20;99.90;;;;;;5014908;28;20185;-71
2023/03/12 00:54:57;;;;;;;6.70;4.03;;;6.20;99.90;;;;;;4997190;28;20216;-71
2023/03/12 00:57:29;;;;;;;6.32;3.65;;;6.20;99.90;;;;;;4999835;28;20830;-71
2023/03/12 00:59:55;;;;;;;4.70;3.50;;;6.20;99.90;;;;;;5011899;28;20245;-71
2023/03/12 01:02:23;;;;;;;5.97;4.10;;;6.20;99.90;;;;;;5000805;28;20429;-71
2023/03/12 01:04:54;;;;;;;5.55;2.70;;;6.20;99.90;;;;;;5011588;28;20206;-71
2023/03/12 01:07:20;;;;;;;7.55;3.70;;;6.20;99.90;;;;;;5032981;28;20217;-71
2023/03/12 01:09:49;;;;;;;4.40;3.60;;;6.20;99.90;;;;;;4998895;28;20199;-71
2023/03/12 01:12:15;;;;;;;3.80;3.30;;;6.20;99.90;;;;;;5032051;28;20527;-71
2023/03/12 01:14:41;;;;;;;4.20;2.90;;;6.20;99.90;;;;;;5010003;28;20927;-71
2023/03/12 01:17:07;;;;;;;7.57;3.23;;;6.20;99.90;;;;;;5018141;28;20511;-71
2023/03/12 01:19:33;;;;;;;4.00;2.83;;;6.20;99.90;;;;;;5023199;28;20499;-71
2023/03/12 01:21:59;;;;;;;4.03;3.10;;;6.20;99.90;;;;;;5014697;28;20155;-71
2023/03/12 01:24:25;;;;;;;4.60;3.33;;;6.20;99.90;;;;;;5007754;28;20546;-71
2023/03/12 01:26:51;;;;;;;3.20;2.90;;;6.20;99.90;;;;;;5050594;28;20588;-72
2023/03/12 01:29:20;;;;;;;4.38;3.00;;;6.20;99.90;;;;;;5025925;28;20202;-71
2023/03/12 01:31:46;;;;;;;4.63;3.03;;;6.20;99.90;;;;;;4997615;28;20443;-71
2023/03/12 01:34:14;;;;;;;5.72;3.00;;;6.20;99.90;;;;;;5020627;28;20444;-71
2023/03/12 01:36:43;;;;;;;7.28;3.58;;;6.20;99.90;;;;;;5020955;28;20216;-71
2023/03/12 01:39:10;;;;;;;5.50;3.58;;;6.20;99.90;;;;;;5021546;28;20224;-71
2023/03/12 01:41:36;;;;;;;3.93;3.20;;;6.10;99.90;;;;;;5017430;28;20243;-71
2023/03/12 01:44:05;;;;;;;5.03;3.00;;;6.10;99.90;;;;;;5011296;28;20425;-71
2023/03/12 01:46:42;;;;;;;3.70;2.70;;;6.10;99.90;;;;;;4998114;28;20670;-71
2023/03/12 01:49:17;;;;;;;2.97;2.65;;;6.10;99.90;;;;;;5021321;28;20470;-71
2023/03/12 01:51:56;;;;;;;5.65;2.60;;;6.10;99.90;;;;;;5017522;28;20162;-71
2023/03/12 01:54:36;;;;;;;5.35;3.03;;;6.10;99.90;;;;;;5024825;28;20578;-71
2023/03/12 01:57:05;;;;;;;5.23;3.00;;;6.10;99.90;;;;;;5013893;28;20707;-71
2023/03/12 01:59:43;;;;;;;5.30;3.00;;;6.10;99.90;;;;;;5041512;28;20474;-71
2023/03/12 02:02:10;;;;;;;4.15;2.90;;;6.10;99.90;;;;;;4977597;28;20188;-71
2023/03/12 02:04:40;;;;;;;4.18;3.20;;;6.10;99.90;;;;;;5014891;28;20191;-71
2023/03/12 02:07:12;;;;;;;4.00;2.83;;;6.10;99.90;;;;;;5017664;28;20238;-71
2023/03/12 02:09:48;;;;;;;8.67;3.17;;;6.10;99.90;;;;;;5023890;28;20207;-71
2023/03/12 02:12:15;;;;;;;5.20;2.95;;;6.10;99.90;;;;;;5009556;28;20452;-71
2023/03/12 02:14:42;;;;;;;3.43;2.50;;;6.10;99.90;;;;;;4998916;28;20182;-71
2023/03/12 02:17:11;;;;;;;5.40;3.28;;;6.10;99.90;;;;;;4997547;28;20473;-71
2023/03/12 02:20:11;;;;;;;6.85;3.20;;;6.10;99.90;;;;;;5002924;28;20201;-72
2023/03/12 02:22:40;;;;;;;5.30;3.10;;;6.10;99.90;;;;;;5031336;28;20220;-71
2023/03/12 02:25:29;;;;;;;5.70;3.03;;;6.00;99.90;;;;;;5002239;28;20261;-71
2023/03/12 02:28:02;;;;;;;3.70;2.70;;;6.10;99.90;;;;;;5030073;28;20456;-71
2023/03/12 02:30:29;;;;;;;3.45;2.70;;;6.10;99.90;;;;;;5001711;28;20224;-71
2023/03/12 02:32:58;;;;;;;4.75;2.60;;;6.10;99.90;;;;;;5023612;28;20634;-71
2023/03/12 02:35:27;;;;;;;4.78;2.67;;;6.10;99.90;;;;;;5037427;28;20180;-71
2023/03/12 02:37:57;;;;;;;4.15;3.05;;;6.00;99.90;;;;;;5012994;28;20210;-71
2023/03/12 02:40:32;;;;;;;5.15;2.70;;;6.10;99.90;;;;;;5037087;28;20196;-71
2023/03/12 02:43:00;;;;;;;5.25;3.40;;;6.00;99.90;;;;;;5003323;28;20677;-71
2023/03/12 02:45:29;;;;;;;4.30;2.92;;;6.00;99.90;;;;;;5020706;28;20191;-72
2023/03/12 02:47:56;;;;;;;5.30;3.10;;;6.00;99.90;;;;;;4990161;28;20675;-72
2023/03/12 02:50:22;;;;;;;3.20;2.35;;;6.00;99.90;;;;;;5013673;28;20209;-71
2023/03/12 02:52:48;;;;;;;6.40;3.10;;;6.00;99.90;;;;;;5022890;28;20678;-72
2023/03/12 02:55:17;;;;;;;3.60;3.10;;;6.00;99.90;;;;;;5014522;28;20623;-72
2023/03/12 02:57:43;;;;;;;5.07;3.38;;;6.00;99.90;;;;;;5043318;28;20463;-72
2023/03/12 03:00:16;;;;;;;3.17;2.60;;;6.00;99.90;;;;;;5020864;28;20219;-72
2023/03/12 03:02:49;;;;;;;5.15;2.95;;;6.00;99.90;;;;;;5034667;28;21008;-72
2023/03/12 03:05:19;;;;;;;4.30;2.00;;;6.00;99.90;;;;;;5020338;28;20177;-72
2023/03/12 03:07:45;;;;;;;3.30;3.00;;;6.00;99.90;;;;;;5026513;28;20186;-71
2023/03/12 03:10:16;;;;;;;4.90;3.13;;;6.00;99.90;;;;;;5013140;28;20182;-72
2023/03/12 03:12:43;;;;;;;3.08;2.60;;;6.00;99.90;;;;;;5045101;28;20477;-72
2023/03/12 03:15:10;;;;;;;4.57;3.15;;;6.00;99.90;;;;;;5000924;28;20302;-72
2023/03/12 03:17:41;;;;;;;5.10;2.80;;;6.00;99.90;;;;;;5004981;28;20237;-71
2023/03/12 03:20:10;;;;;;;3.93;2.73;;;6.00;99.90;;;;;;5000938;28;20429;-72
2023/03/12 03:22:39;;;;;;;4.00;3.10;;;6.00;99.90;;;;;;5014963;28;20433;-72
2023/03/12 03:25:08;;;;;;;4.25;2.60;;;6.00;99.90;;;;;;5013692;28;20193;-72
2023/03/12 03:27:36;;;;;;;3.72;2.63;;;6.00;99.90;;;;;;5005904;28;20702;-71
2023/03/12 03:30:03;;;;;;;3.65;2.35;;;5.90;99.90;;;;;;5013404;28;20202;-71
2023/03/12 03:32:33;;;;;;;3.90;2.45;;;6.00;99.90;;;;;;5013211;28;20174;-71
2023/03/12 03:35:01;;;;;;;4.75;2.75;;;6.00;99.90;;;;;;5020537;28;20189;-72
2023/03/12 03:37:28;;;;;;;3.53;2.80;;;6.00;99.90;;;;;;5018247;28;20364;-71
2023/03/12 03:39:56;;;;;;;3.22;2.40;;;6.00;99.90;;;;;;5025415;28;20201;-71
2023/03/12 03:42:24;;;;;;;4.97;3.10;;;5.90;99.90;;;;;;5009821;28;20194;-71
2023/03/12 03:44:58;;;;;;;4.75;2.95;;;5.90;99.90;;;;;;5013591;28;20174;-71
2023/03/12 03:47:24;;;;;;;3.92;2.83;;;5.90;99.90;;;;;;5012106;28;20172;-71
2023/03/12 03:49:50;;;;;;;3.00;2.30;;;5.90;99.90;;;;;;5001542;28;20215;-71
2023/03/12 03:52:16;;;;;;;3.30;2.77;;;5.90;99.90;;;;;;5016433;28;20194;-71
2023/03/12 03:54:42;;;;;;;3.57;2.13;;;5.90;99.90;;;;;;5000067;28;20668;-71
2023/03/12 03:57:10;;;;;;;4.72;2.78;;;5.90;99.90;;;;;;5021766;28;20456;-71
2023/03/12 03:59:36;;;;;;;3.90;2.47;;;5.90;99.90;;;;;;5036056;28;20254;-71
2023/03/12 04:02:02;;;;;;;5.03;3.00;;;5.90;99.90;;;;;;5002981;28;20537;-71
2023/03/12 04:04:30;;;;;;;3.40;2.70;;;6.00;99.90;;;;;;5019582;28;20419;-71
2023/03/12 04:06:57;;;;;;;3.90;2.60;;;5.90;99.90;;;;;;5006094;28;20709;-71
2023/03/12 04:09:25;;;;;;;4.35;2.38;;;5.90;99.90;;;;;;5015879;28;20463;-71
2023/03/12 04:11:51;;;;;;;4.40;2.97;;;5.90;99.90;;;;;;4999255;28;20669;-71
2023/03/12 04:14:22;;;;;;;2.38;2.17;;;5.90;99.90;;;;;;5015887;28;20262;-71
2023/03/12 04:16:49;;;;;;;3.67;2.60;;;5.90;99.90;;;;;;5015836;28;20687;-71
2023/03/12 04:19:15;;;;;;;4.78;2.55;;;5.90;99.90;;;;;;4999614;28;20671;-71
2023/03/12 04:21:41;;;;;;;3.30;2.35;;;5.90;99.90;;;;;;5015716;28;20620;-71
2023/03/12 04:24:15;;;;;;;3.08;2.10;;;5.90;99.90;;;;;;5015447;28;20194;-71
2023/03/12 04:26:45;;;;;;;5.45;2.50;;;5.90;99.90;;;;;;4998990;28;20210;-71
2023/03/12 04:29:12;;;;;;;3.05;2.00;;;5.90;99.90;;;;;;4999364;28;20205;-71
2023/03/12 04:31:39;;;;;;;4.75;2.72;;;5.90;99.90;;;;;;4998962;28;20198;-71
2023/03/12 04:34:10;;;;;;;3.22;2.33;;;5.90;99.90;;;;;;5015228;28;20183;-71
2023/03/12 04:36:39;;;;;;;2.70;2.35;;;5.90;99.90;;;;;;5015075;28;20206;-71
2023/03/12 04:39:06;;;;;;;6.20;2.58;;;5.90;99.90;;;;;;5032985;28;20623;-71
2023/03/12 04:41:36;;;;;;;5.30;2.50;;;5.90;99.90;;;;;;4998812;28;20269;-71
2023/03/12 04:44:13;;;;;;;3.00;2.40;;;5.90;99.90;;;;;;4999062;28;20175;-71
2023/03/12 04:46:41;;;;;;;3.20;2.38;;;5.90;99.90;;;;;;4998703;28;20262;-71
2023/03/12 04:49:08;;;;;;;2.65;2.20;;;5.90;99.90;;;;;;5014166;28;20201;-71
2023/03/12 04:51:41;;;;;;;3.95;2.45;;;5.90;99.90;;;;;;5015010;28;20368;-71
2023/03/12 04:54:09;;;;;;;6.07;2.70;;;5.90;99.90;;;;;;4980168;28;20182;-71
2023/03/12 04:56:37;;;;;;;4.95;2.80;;;5.90;99.90;;;;;;4995489;28;20273;-71
2023/03/12 04:59:05;;;;;;;3.28;2.58;;;5.90;99.90;;;;;;4979209;28;20214;-71
2023/03/12 05:01:34;;;;;;;3.58;2.85;;;5.90;99.90;;;;;;4994973;28;20187;-71
2023/03/12 05:04:05;;;;;;;3.28;2.67;;;5.90;99.90;;;;;;4979249;28;20274;-71
2023/03/12 05:06:32;;;;;;;3.97;2.20;;;5.90;99.90;;;;;;5003884;28;20261;-71
2023/03/12 05:09:00;;;;;;;3.38;2.35;;;5.90;99.90;;;;;;5031068;28;20198;-71
2023/03/12 05:11:29;;;;;;;4.25;2.55;;;5.90;99.90;;;;;;4998597;28;20192;-71
2023/03/12 05:13:55;;;;;;;3.50;2.15;;;5.90;99.90;;;;;;5014074;28;20235;-72
2023/03/12 05:16:24;;;;;;;3.63;2.95;;;5.90;99.90;;;;;;5014675;28;20214;-72
2023/03/12 05:18:52;;;;;;;3.97;2.38;;;5.90;99.90;;;;;;5014409;28;20198;-72
2023/03/12 05:21:27;;;;;;;2.88;2.17;;;5.90;99.90;;;;;;5014816;28;20261;-72
2023/03/12 05:23:57;;;;;;;3.60;2.33;;;5.90;99.90;;;;;;5031044;28;20179;-72
2023/03/12 05:26:30;;;;;;;4.25;2.42;;;5.90;99.90;;;;;;5029978;28;20201;-71
2023/03/12 05:29:07;;;;;;;6.70;2.67;;;5.90;99.90;;;;;;5031673;28;20205;-71
2023/03/12 05:31:34;;;;;;;3.72;2.63;;;5.90;99.90;;;;;;5013636;28;20181;-71
2023/03/12 05:34:02;;;;;;;4.57;2.40;;;5.90;99.90;;;;;;4998209;28;20200;-71
2023/03/12 05:36:31;;;;;;;3.40;2.40;;;5.90;99.90;;;;;;4997909;28;20547;-72
2023/03/12 05:38:59;;;;;;;3.38;2.22;;;5.90;99.90;;;;;;4997863;28;20210;-71
2023/03/12 05:41:30;;;;;;;3.30;2.50;;;5.90;99.90;;;;;;5013665;28;20212;-72
2023/03/12 05:44:03;;;;;;;3.50;2.65;;;5.80;99.90;;;;;;5014072;28;20756;-72
2023/03/12 05:46:29;;;;;;;3.28;2.20;;;5.80;99.90;;;;;;5014026;28;20170;-71
2023/03/12 05:48:55;;;;;;;4.35;2.92;;;5.80;99.90;;;;;;5030479;28;20293;-72
2023/03/12 05:51:22;;;;;;;2.90;2.22;;;5.80;99.90;;;;;;5014091;28;20204;-72
2023/03/12 05:53:48;;;;;;;2.70;2.40;;;5.90;99.90;;;;;;4996734;28;20185;-72
2023/03/12 05:56:16;;;;;;;2.85;2.33;;;5.80;99.90;;;;;;5010677;28;20650;-71
2023/03/12 05:58:43;;;;;;;4.05;2.50;;;5.80;99.90;;;;;;4994409;28;20206;-72
2023/03/12 06:01:24;;;;;;;4.45;2.50;;;5.80;99.90;;;;;;4994389;28;20232;-72
2023/03/12 06:03:53;;;;;;;4.05;2.50;;;5.80;99.90;;;;;;4978240;28;20700;-72
2023/03/12 06:06:21;;;;;;;4.50;2.83;;;5.80;99.90;;;;;;5010545;28;20176;-71
2023/03/12 06:08:47;;;;;;;5.18;2.80;;;5.80;99.90;;;;;;5006385;28;20244;-72
2023/03/12 06:11:15;;;;;;;6.20;2.80;;;5.80;99.90;;;;;;4996961;28;20173;-72
2023/03/12 06:13:43;;;;;;;3.60;2.67;;;5.80;99.90;;;;;;4997062;28;20451;-72
2023/03/12 06:16:24;;;;;;;4.13;2.63;;;5.80;99.90;;;;;;5031573;28;20178;-71
2023/03/12 06:18:55;;;;;;;4.57;2.38;;;5.80;99.90;;;;;;4996841;28;20205;-71
2023/03/12 06:21:26;;;;;;;5.32;2.90;;;5.80;99.90;;;;;;4981395;28;20231;-71
2023/03/12 06:23:52;;;;;;;4.72;2.38;;;5.80;99.90;;;;;;5013352;28;20189;-71
2023/03/12 06:26:42;;;;;;;4.38;2.45;;;5.80;99.90;;;;;;5022193;28;20205;-71
2023/03/12 06:29:10;;;;;;;6.15;2.75;;;5.80;99.90;;;;;;5013750;28;20244;-73
2023/03/12 06:31:38;;;;;;;3.10;2.65;;;5.80;99.90;;;;;;5029905;28;20169;-74
2023/03/12 06:34:09;;;;;;;3.15;2.38;;;5.80;99.90;;;;;;5030200;28;20170;-76
2023/03/12 06:36:37;;;;;;;9.63;2.85;;;5.80;99.90;;;;;;5030628;28;20187;-75
2023/03/12 06:39:07;;;;;;;5.70;2.60;;;5.80;99.90;;;;;;4997352;28;20195;-75
2023/03/12 06:41:36;;;;;;;2.42;2.22;;;5.80;99.90;;;;;;5013325;28;20257;-75
2023/03/12 06:44:05;;;;;;;4.60;2.80;;;5.80;99.90;;;;;;4996217;28;20228;-75
2023/03/12 06:46:31;;;;;;;4.55;2.55;;;5.80;99.90;;;;;;5032952;28;20162;-75
2023/03/12 06:49:00;;;;;;;5.50;2.60;;;5.80;99.90;;;;;;5023690;28;20643;-75
2023/03/12 06:51:26;;;;;;;6.68;2.53;;;5.80;99.90;;;;;;5010961;28;20174;-75
2023/03/12 06:54:01;;;;;;;4.60;2.70;;;5.80;99.90;;;;;;5010902;28;20206;-75
2023/03/12 06:56:32;;;;;;;3.83;2.50;;;5.80;99.90;;;;;;5026262;28;20209;-75
2023/03/12 06:58:58;;;;;;;5.43;2.50;;;5.80;99.90;;;;;;5011316;28;20304;-75
2023/03/12 07:01:24;;;;;;;5.50;3.20;;;5.80;99.90;;;;;;4994519;28;20256;-75
2023/03/12 07:03:50;;;;;;;7.30;3.08;;;5.80;99.90;;;;;;4994637;28;20420;-75
2023/03/12 07:06:21;;;;;;;5.13;2.40;;;5.80;99.90;;;;;;5010759;28;20167;-75
2023/03/12 07:08:48;;;;;;;5.45;2.60;;;5.80;99.90;;;;;;4993329;28;20459;-75
2023/03/12 07:11:14;;;;;;;5.60;3.15;;;5.80;99.90;;;;;;5011940;28;20592;-75
2023/03/12 07:13:40;;;;;;;8.48;2.50;;;5.80;99.90;;;;;;4998293;28;20629;-75
2023/03/12 07:16:07;;;;;;;4.15;2.60;;;5.80;99.90;;;;;;5014566;28;20162;-75
2023/03/12 07:18:33;;;;;;;5.00;2.97;;;5.80;99.90;;;;;;5014345;28;20267;-75
2023/03/12 07:20:59;;;;;;;5.40;2.95;;;5.80;99.90;;;;;;4997659;28;20246;-75
2023/03/12 07:23:25;;;;;;;4.25;2.70;;;5.80;99.90;;;;;;4998066;28;20441;-75
2023/03/12 07:25:54;;;;;;;3.40;2.65;;;5.80;99.90;;;;;;4996350;28;20210;-75
2023/03/12 07:28:21;;;;;;;4.18;2.47;;;5.80;99.90;;;;;;5029652;28;20193;-75
2023/03/12 07:30:49;;;;;;;7.90;2.67;;;5.80;99.90;;;;;;5030879;28;20177;-75
2023/03/12 07:33:18;;;;;;;4.67;2.20;;;5.80;99.90;;;;;;4997490;28;20207;-75
2023/03/12 07:35:46;;;;;;;4.63;2.43;;;5.80;99.90;;;;;;5013423;28;21011;-75
2023/03/12 07:38:14;;;;;;;3.97;2.40;;;5.80;99.90;;;;;;5013700;28;20505;-75
2023/03/12 07:40:40;;;;;;;6.50;2.70;;;5.80;99.90;;;;;;5013563;28;20750;-75
2023/03/12 07:43:10;;;;;;;3.33;2.50;;;5.80;99.90;;;;;;4981702;28;20533;-75
2023/03/12 07:45:39;;;;;;;5.78;2.90;;;5.80;99.90;;;;;;5030418;28;20768;-75
2023/03/12 07:48:06;;;;;;;4.68;2.70;;;5.80;99.90;;;;;;5031228;28;20252;-75
2023/03/12 07:50:35;;;;;;;6.75;2.70;;;5.80;99.90;;;;;;5012309;28;20743;-73
2023/03/12 07:53:03;;;;;;;3.70;2.80;;;5.80;99.90;;;;;;5031967;28;20163;-73
2023/03/12 07:55:33;;;;;;;3.95;2.75;;;5.80;99.90;;;;;;5031205;28;20597;-73
2023/03/12 07:57:59;;;;;;;7.65;3.10;;;5.80;99.90;;;;;;5014399;28;20225;-73
2023/03/12 08:00:29;;;;;;;3.13;2.25;;;5.80;99.90;;;;;;5032365;28;20288;-73
2023/03/12 08:02:55;;;;;;;3.00;2.55;;;5.80;99.90;;;;;;5014986;28;20228;-73
2023/03/12 08:05:24;;;;;;;3.50;2.60;;;5.80;99.90;;;;;;5014372;28;20541;-73
2023/03/12 08:07:52;;;;;;;5.22;2.83;;;5.80;99.90;;;;;;5013276;28;20468;-73
2023/03/12 08:10:21;;;;;;;3.77;2.87;;;5.80;99.90;;;;;;5014567;28;20666;-73
2023/03/12 08:12:47;;;;;;;4.75;2.63;;;5.80;99.90;;;;;;5014270;28;20447;-73
2023/03/12 08:15:15;;;;;;;6.25;2.75;;;5.80;99.90;;;;;;5031818;28;20169;-73
2023/03/12 08:17:42;;;;;;;4.65;2.75;;;5.80;99.90;;;;;;5014233;28;20261;-73
2023/03/12 08:20:09;;;;;;;4.72;2.95;;;5.80;99.90;;;;;;5014124;28;20238;-73
2023/03/12 08:22:38;;;;;;;6.25;3.10;;;5.80;99.90;;;;;;5029842;28;20170;-73
2023/03/12 08:25:07;;;;;;;7.95;2.90;;;5.80;99.90;;;;;;5030604;28;20232;-73
2023/03/12 08:27:33;;;;;;;4.70;2.50;;;5.80;99.90;;;;;;5030584;28;20169;-73
2023/03/12 08:30:02;;;;;;;5.30;2.93;;;5.80;99.90;;;;;;5030374;28;20693;-73
2023/03/12 08:32:33;;;;;;;3.22;2.42;;;5.80;99.90;;;;;;4998075;28;20511;-72
2023/03/12 08:34:59;;;;;;;7.22;3.25;;;5.80;99.90;;;;;;5029325;28;20273;-71
2023/03/12 08:37:25;;;;;;;4.97;3.13;;;5.80;99.90;;;;;;5030943;28;20221;-71
2023/03/12 08:39:51;;;;;;;5.53;3.57;;;5.80;99.90;;;;;;5029293;28;20233;-70
2023/03/12 08:42:17;;;;;;;3.70;2.87;;;5.80;99.90;;;;;;5012731;28;20555;-70
2023/03/12 08:44:44;;;;;;;5.80;2.57;;;5.80;99.90;;;;;;5012816;28;20428;-70
2023/03/12 08:47:10;;;;;;;7.18;2.65;;;5.80;99.90;;;;;;5012047;28;20551;-70
2023/03/12 08:49:38;;;;;;;4.72;3.13;;;5.80;99.90;;;;;;5028557;28;20275;-70
2023/03/12 08:52:04;;;;;;;3.40;2.60;;;5.80;99.90;;;;;;5012840;28;20169;-70
2023/03/12 08:54:30;;;;;;;5.25;3.17;;;5.80;99.90;;;;;;5030240;28;20788;-70
2023/03/12 08:56:59;;;;;;;7.15;3.47;;;5.90;99.90;;;;;;5011959;28;20303;-70
2023/03/12 08:59:26;;;;;;;8.23;3.35;;;5.80;99.90;;;;;;5012927;28;20197;-70
2023/03/12 09:01:54;;;;;;;4.38;2.92;;;5.90;99.90;;;;;;5029837;28;20154;-70
2023/03/12 09:04:24;;;;;;;4.32;2.80;;;5.90;99.90;;;;;;4996664;28;20385;-70
2023/03/12 09:06:52;;;;;;;4.90;2.90;;;5.90;99.90;;;;;;5029791;28;20183;-70
2023/03/12 09:09:23;;;;;;;5.43;3.45;;;5.80;99.90;;;;;;5008650;28;20214;-70
2023/03/12 09:11:49;;;;;;;5.10;3.13;;;5.90;99.90;;;;;;5028243;28;20198;-70
2023/03/12 09:14:19;;;;;;;3.33;3.00;;;5.90;99.90;;;;;;5029963;28;20201;-70
2023/03/12 09:16:47;;;;;;;5.68;3.40;;;5.90;99.90;;;;;;5030331;28;20410;-70
2023/03/12 09:19:18;;;;;;;3.90;3.55;;;5.90;99.90;;;;;;5012789;28;20203;-70
2023/03/12 09:21:44;;;;;;;4.10;3.40;;;5.90;99.90;;;;;;5012023;28;20205;-70
2023/03/12 09:24:16;;;;;;;5.32;3.00;;;5.90;99.90;;;;;;5011798;28;20228;-70
2023/03/12 09:26:46;;;;;;;6.30;3.88;;;5.90;99.90;;;;;;5030086;28;20173;-70
2023/03/12 09:29:12;;;;;;;5.90;3.50;;;5.90;99.90;;;;;;5011683;28;20205;-70
2023/03/12 09:31:40;;;;;;;4.13;3.70;;;5.90;99.90;;;;;;5019900;28;20226;-70
2023/03/12 09:34:11;;;;;;;8.70;3.70;;;5.90;99.90;;;;;;5028490;28;20544;-70
2023/03/12 09:36:39;;;;;;;5.93;2.83;;;5.90;99.90;;;;;;5012155;28;20205;-70
2023/03/12 09:39:05;;;;;;;4.32;3.15;;;5.90;99.90;;;;;;5012634;28;20302;-70
2023/03/12 09:41:37;;;;;;;4.60;3.40;;;5.90;99.90;;;;;;5045209;28;20179;-70
2023/03/12 09:44:21;;;;;;;7.88;4.20;;;5.90;99.90;;;;;;5008778;28;20218;-69
2023/03/12 09:46:49;;;;;;;3.65;3.25;;;5.90;99.90;;;;;;5008920;28;20197;-70
2023/03/12 09:49:26;;;;;;;5.97;3.92;;;5.90;99.90;;;;;;5023523;28;20202;-71
2023/03/12 09:51:57;;;;;;;5.82;4.25;;;5.90;99.90;;;;;;4992173;28;20181;-71
2023/03/12 09:54:53;;;;;;;6.20;3.72;;;5.90;99.90;;;;;;5028993;28;20629;-68
2023/03/12 09:57:25;;;;;;;5.38;3.50;;;5.90;99.90;;;;;;4993522;28;20236;-70
2023/03/12 09:59:52;;;;;;;5.30;4.10;;;6.00;99.90;;;;;;5029643;28;20687;-71
2023/03/12 10:02:46;;;;;;;5.93;4.05;;;6.00;99.90;;;;;;5029556;28;20197;-71
2023/03/12 10:05:39;;;;;;;4.25;3.25;;;6.00;99.90;;;;;;5011806;28;20213;-71
2023/03/12 10:08:39;;;;;;;6.88;3.20;;;6.00;99.90;;;;;;5000874;28;20221;-70
2023/03/12 10:11:08;;;;;;;3.28;2.95;;;5.90;99.90;;;;;;5011286;28;20301;-71
2023/03/12 10:13:49;;;;;;;3.92;2.88;;;6.00;99.90;;;;;;4979457;28;20192;-69
2023/03/12 10:16:34;;;;;;;4.78;3.33;;;6.00;99.90;;;;;;5012209;28;20189;-71
2023/03/12 10:19:14;;;;;;;5.55;3.22;;;6.00;99.90;;;;;;5029152;28;20207;-72
2023/03/12 10:22:07;;;;;;;7.88;3.75;;;6.00;99.90;;;;;;5011456;28;20258;-71
2023/03/12 10:25:01;;;;;;;4.85;3.70;;;6.00;99.90;;;;;;5002320;28;20212;-71
2023/03/12 10:27:29;;;;;;;3.85;3.45;;;6.00;99.90;;;;;;5011963;28;20218;-71
2023/03/12 10:29:56;;;;;;;4.55;4.13;;;6.00;99.90;;;;;;5029062;28;20854;-71
2023/03/12 10:32:37;;;;;;;8.32;3.95;;;6.00;99.90;;;;;;4995022;28;20206;-71
2023/03/12 10:35:16;;;;;;;3.90;3.50;;;6.00;99.90;;;;;;5011695;28;20193;-72
2023/03/12 10:37:55;;;;;;;4.78;3.95;;;6.00;99.90;;;;;;5011695;28;20218;-71
2023/03/12 10:40:30;;;;;;;7.20;3.33;;;6.00;99.90;;;;;;4994608;28;20209;-71
2023/03/12 10:42:59;;;;;;;3.45;3.15;;;6.00;99.90;;;;;;5011645;28;20188;-71
2023/03/12 10:45:56;;;;;;;3.83;3.53;;;6.00;99.90;;;;;;5012043;28;20865;-71
2023/03/12 10:48:24;;;;;;;3.70;3.10;;;6.00;99.90;;;;;;5017278;28;20224;-70
2023/03/12 10:51:03;;;;;;;4.25;3.47;;;6.00;99.90;;;;;;5017370;28;20197;-71
2023/03/12 10:53:34;;;;;;;4.72;3.22;;;6.00;99.90;;;;;;5013629;28;20678;-71
2023/03/12 10:56:07;;;;;;;3.35;3.05;;;6.10;99.90;;;;;;4997776;28;20171;-71
2023/03/12 10:58:39;;;;;;;3.63;3.10;;;6.10;99.90;;;;;;5020891;28;20212;-71
2023/03/12 11:01:14;;;;;;;3.42;3.10;;;6.10;99.90;;;;;;5029888;28;20196;-70
2023/03/12 11:03:41;;;;;;;3.50;3.20;;;6.10;99.90;;;;;;4984827;28;20231;-71
2023/03/12 11:06:14;;;;;;;3.90;3.35;;;6.10;99.90;;;;;;5016943;28;20162;-71
2023/03/12 11:09:00;;;;;;;4.28;3.20;;;6.10;99.90;;;;;;5034307;28;20208;-70
2023/03/12 11:11:31;;;;;;;4.25;3.65;;;6.10;99.90;;;;;;5017368;28;20550;-71
2023/03/12 11:14:19;;;;;;;4.40;3.23;;;6.10;99.90;;;;;;5034882;28;20166;-70
2023/03/12 11:16:45;;;;;;;5.47;3.43;;;6.10;99.90;;;;;;5000321;28;20427;-71
2023/03/12 11:19:25;;;;;;;4.70;2.87;;;6.10;99.90;;;;;;5016960;28;20439;-71
2023/03/12 11:22:00;;;;;;;3.80;3.38;;;6.10;99.90;;;;;;5033759;28;20466;-71
2023/03/12 11:24:26;;;;;;;3.60;3.30;;;6.20;99.90;;;;;;5017227;28;20267;-69
2023/03/12 11:27:05;;;;;;;3.77;3.30;;;6.20;99.90;;;;;;5016873;28;20503;-69
2023/03/12 11:29:38;;;;;;;3.28;2.97;;;6.20;99.90;;;;;;5017030;28;21100;-71
2023/03/12 11:32:39;;;;;;;5.45;3.75;;;6.20;99.90;;;;;;5016807;28;20736;-73
2023/03/12 11:35:13;;;;;;;3.73;3.03;;;6.20;99.90;;;;;;5003194;28;20194;-76
2023/03/12 11:37:59;;;;;;;3.60;3.13;;;6.20;99.90;;;;;;5015840;28;20532;-77
2023/03/12 11:40:45;;;;;;;4.50;3.80;;;6.20;99.90;;;;;;5016681;28;20190;-77
2023/03/12 11:43:32;;;;;;;3.38;3.08;;;6.20;99.90;;;;;;5033636;28;20448;-75
2023/03/12 11:46:40;;;;;;;3.20;2.88;;;6.20;99.90;;;;;;5016729;28;20162;-74
2023/03/12 11:49:06;;;;;;;4.67;3.90;;;6.20;99.90;;;;;;4999321;28;20617;-75
2023/03/12 11:51:52;;;;;;;4.35;3.45;;;6.20;99.90;;;;;;5016162;28;20794;-77
2023/03/12 11:54:30;;;;;;;4.25;3.33;;;6.20;99.90;;;;;;5035311;28;20163;-76
2023/03/12 11:57:12;;;;;;;4.72;4.20;;;6.30;99.90;;;;;;5015759;28;20215;-76
2023/03/12 12:00:19;;;;;;;5.63;3.95;;;6.30;99.90;;;;;;5032895;28;20198;-75
2023/03/12 12:02:54;;;;;;;5.72;4.03;;;6.30;99.90;;;;;;4975898;28;20306;-81
2023/03/12 12:05:32;;;;;;;4.25;3.40;;;6.30;99.90;;;;;;5034850;28;20957;-77
2023/03/12 12:08:14;;;;;;;5.88;4.50;;;6.30;99.90;;;;;;5033953;28;20678;-79
2023/03/12 12:10:59;;;;;;;6.90;4.45;;;6.30;99.90;;;;;;5005002;28;20743;-79
2023/03/12 12:13:40;;;;;;;5.55;4.22;;;6.30;99.90;;;;;;5032797;28;20176;-74
2023/03/12 12:16:13;;;;;;;5.35;4.78;;;6.30;99.90;;;;;;4996460;28;20268;-72
2023/03/12 12:18:53;;;;;;;5.07;4.32;;;6.30;99.90;;;;;;5010626;28;20215;-73
2023/03/12 12:21:50;;;;;;;5.53;3.97;;;6.40;99.90;;;;;;5010524;28;20269;-73
2023/03/12 12:24:43;;;;;;;4.90;4.45;;;6.40;99.90;;;;;;5018997;28;20487;-73
2023/03/12 12:27:22;;;;;;;6.05;4.50;;;6.40;99.90;;;;;;4983336;28;20189;-72
2023/03/12 12:30:50;;;;;;;6.47;5.00;;;6.40;99.90;;;;;;5015571;28;20209;-73
2023/03/12 12:33:33;;;;;;;7.47;4.80;;;6.40;99.90;;;;;;4993591;28;20961;-73
2023/03/12 12:36:00;;;;;;;5.33;4.70;;;6.40;99.90;;;;;;5015585;28;20651;-72
2023/03/12 12:38:31;;;;;;;4.65;4.10;;;6.40;99.90;;;;;;5015176;28;20532;-72
2023/03/12 12:41:12;;;;;;;6.80;4.55;;;6.40;99.90;;;;;;5015382;28;20193;-73
2023/03/12 12:43:48;;;;;;;4.53;3.80;;;6.50;99.90;;;;;;5015959;28;20203;-72
2023/03/12 12:46:27;;;;;;;6.25;4.88;;;6.50;99.90;;;;;;5015752;28;20194;-71
2023/03/12 12:49:19;;;;;;;5.50;4.93;;;6.50;99.90;;;;;;4998545;28;20288;-73
2023/03/12 12:52:09;;;;;;;5.00;4.50;;;6.50;99.90;;;;;;5014678;28;20202;-70
2023/03/12 12:55:06;;;;;;;6.28;5.10;;;6.50;99.90;;;;;;5000046;28;20209;-71
2023/03/12 12:57:44;;;;;;;9.47;6.43;;;6.50;99.90;;;;;;5033002;28;20218;-72
2023/03/12 13:00:41;;;;;;;6.18;5.43;;;6.50;99.90;;;;;;5015220;28;20463;-70
2023/03/12 13:03:14;;;;;;;8.02;5.35;;;6.60;99.90;;;;;;5014658;28;20175;-71
2023/03/12 13:06:00;;;;;;;7.70;5.37;;;6.60;99.90;;;;;;5015198;28;20165;-71
2023/03/12 13:08:39;;;;;;;6.80;5.53;;;6.60;99.90;;;;;;5014649;28;20453;-71
2023/03/12 13:11:23;;;;;;;8.57;5.90;;;6.70;99.90;;;;;;5032010;28;20461;-70
2023/03/12 13:14:03;;;;;;;7.33;5.93;;;6.70;99.90;;;;;;5015261;28;20456;-71
2023/03/12 13:17:05;;;;;;;7.70;5.00;;;6.70;99.90;;;;;;5015606;28;20505;-71
2023/03/12 13:19:40;;;;;;;9.33;6.10;;;6.80;99.90;;;;;;5032369;28;20479;-70
2023/03/12 13:22:35;;;;;;;8.63;6.07;;;6.80;99.90;;;;;;4998663;28;20427;-71